»·PEaware :: N5GL KRNO-KMFR

N5GL :: KRNO-KMFR

FLIGHT INFORMATION

Flight Status: Arrived
Operator: Privately registered:
United States
More flights under this callsign
Pilot: Georg L. (13308)
Aircraft: SOCATA TBM-900
(TBM9)
More flights by this aircraft type
Origin: KRNO Reno/Tahoe Intl
United States
Destination: KMFR Rogue Valley Intl-Medford
United States
More flights between these airports :: More routes between these airports
Route: RENO9 FMG LMT OED
File this flight plan on PilotEdge
Remarks:
Altitude:
(Current/Filed)
26,000ft
Speed:
(Current/Filed)
314kts
Departed: 28-Dec-20 11:13 AM
Arrived: 28-Dec-20 12:18 PM
Distance/Time
Traveled:
223nm/1:05
Distance/Time
To Go:
Arrived

Flight Plot

Page will automatically refresh every two minutes.

Flight plan parsing failed; only flown route is shown


Map Options




Map Legend


Flown Route
Filed Route
Departure Airport
Arrival Airport
Navaid (VOR, NDB)
Fix

Horizontal Profiles

Position Reports

Time Latitude Longitude Heading Altitude Ground
Speed
28-Dec-20 10:53 39.500481 -119.764931 273 4404ft 0kts
28-Dec-20 10:53 39.500481 -119.764931 273 4404ft 0kts
28-Dec-20 10:55 39.500481 -119.764931 273 4404ft 0kts
28-Dec-20 10:55 39.500481 -119.764931 273 4404ft 0kts
28-Dec-20 10:57 39.500481 -119.764931 273 4404ft 0kts
28-Dec-20 10:57 39.500481 -119.764931 273 4404ft 0kts
28-Dec-20 10:58 39.500481 -119.764931 273 4404ft 0kts
28-Dec-20 11:00 39.500481 -119.764931 273 4404ft 0kts
28-Dec-20 11:00 39.500481 -119.764931 273 4404ft 0kts
28-Dec-20 11:01 39.500481 -119.764931 273 4404ft 0kts
28-Dec-20 11:02 39.500481 -119.764931 273 4404ft 0kts
28-Dec-20 11:03 39.500481 -119.764931 273 4404ft 0kts
28-Dec-20 11:04 39.500481 -119.764931 273 4404ft 0kts
28-Dec-20 11:05 39.500481 -119.764931 273 4404ft 0kts
28-Dec-20 11:06 39.500804 -119.765259 314 4404ft 3kts
28-Dec-20 11:07 39.500837 -119.765347 282 4404ft 0kts
28-Dec-20 11:08 39.503827 -119.765725 1 4406ft 17kts
28-Dec-20 11:09 39.509702 -119.765712 0 4412ft 19kts
28-Dec-20 11:10 39.513725 -119.765506 286 4416ft 10kts
28-Dec-20 11:11 39.513732 -119.765726 266 4416ft 0kts
28-Dec-20 11:12 39.510692 -119.766780 179 4414ft 80kts
28-Dec-20 11:13 39.471662 -119.769086 177 6494ft 147kts
28-Dec-20 11:14 39.428067 -119.767859 177 9262ft 142kts
28-Dec-20 11:15 39.371790 -119.767077 177 10033ft 234kts
28-Dec-20 11:16 39.296487 -119.765150 177 10001ft 255kts
28-Dec-20 11:17 39.256398 -119.713680 50 11032ft 226kts
28-Dec-20 11:18 39.315354 -119.679193 22 13411ft 212kts
28-Dec-20 11:19 39.374363 -119.646990 22 15197ft 220kts
28-Dec-20 11:20 39.422226 -119.620619 22 16729ft 225kts
28-Dec-20 11:21 39.485494 -119.585463 22 18540ft 231kts
28-Dec-20 11:22 39.551288 -119.604737 322 18961ft 274kts
28-Dec-20 11:23 39.623960 -119.664241 328 18917ft 290kts
28-Dec-20 11:24 39.698196 -119.722257 328 18912ft 292kts
28-Dec-20 11:25 39.772800 -119.780656 328 18910ft 292kts
28-Dec-20 11:26 39.843866 -119.836407 328 20227ft 261kts
28-Dec-20 11:27 39.908412 -119.887175 328 22104ft 247kts
28-Dec-20 11:28 39.972112 -119.937401 328 23717ft 255kts
28-Dec-20 11:29 40.034904 -119.986999 328 25263ft 261kts
28-Dec-20 11:30 40.103216 -120.041123 327 25956ft 296kts
28-Dec-20 11:31 40.179656 -120.101823 328 25943ft 316kts
28-Dec-20 11:32 40.256976 -120.163366 328 25941ft 319kts
28-Dec-20 11:33 40.337763 -120.227848 328 25942ft 320kts
28-Dec-20 11:34 40.419002 -120.292878 328 25942ft 319kts
28-Dec-20 11:35 40.499938 -120.357851 328 25937ft 319kts
28-Dec-20 11:36 40.580845 -120.422990 328 25940ft 319kts
28-Dec-20 11:37 40.662459 -120.488886 328 25940ft 319kts
28-Dec-20 11:38 40.744878 -120.555628 328 25941ft 318kts
28-Dec-20 11:39 40.827370 -120.622626 328 25941ft 318kts
28-Dec-20 11:40 40.905576 -120.686324 327 25939ft 318kts
28-Dec-20 11:41 40.988161 -120.753788 327 25938ft 318kts
28-Dec-20 11:42 41.070691 -120.821412 327 25967ft 318kts
28-Dec-20 11:43 41.149160 -120.885888 328 25966ft 318kts
28-Dec-20 11:44 41.229319 -120.951942 328 25968ft 317kts
28-Dec-20 11:45 41.311887 -121.020186 328 25970ft 316kts
28-Dec-20 11:46 41.393644 -121.087964 328 25970ft 317kts
28-Dec-20 11:47 41.476281 -121.156682 328 25966ft 317kts
28-Dec-20 11:48 41.558311 -121.225115 328 26018ft 314kts
28-Dec-20 11:49 41.637617 -121.291442 328 26021ft 311kts
28-Dec-20 11:50 41.717866 -121.358775 328 26021ft 310kts
28-Dec-20 11:51 41.798548 -121.426673 328 26021ft 309kts
28-Dec-20 11:52 41.879220 -121.494767 328 25625ft 320kts
28-Dec-20 11:53 41.961560 -121.564494 328 24038ft 334kts
28-Dec-20 11:54 42.044536 -121.634963 328 22434ft 330kts
28-Dec-20 11:55 42.123134 -121.701916 327 20900ft 325kts
28-Dec-20 11:56 42.174557 -121.803736 291 19411ft 318kts
28-Dec-20 11:57 42.207866 -121.922368 291 18203ft 305kts
28-Dec-20 11:58 42.240497 -122.039106 290 16992ft 300kts
28-Dec-20 11:59 42.273045 -122.156422 289 15768ft 303kts
28-Dec-20 12:00 42.305206 -122.272796 291 14563ft 301kts
28-Dec-20 12:01 42.336198 -122.385293 291 13383ft 294kts
28-Dec-20 12:02 42.366300 -122.495139 291 12189ft 283kts
28-Dec-20 12:03 42.394866 -122.599830 291 11068ft 280kts
28-Dec-20 12:04 42.426640 -122.699747 321 9972ft 276kts
28-Dec-20 12:05 42.496687 -122.748819 334 8943ft 273kts
28-Dec-20 12:06 42.567995 -122.797079 334 7992ft 257kts
28-Dec-20 12:07 42.635746 -122.842934 334 7992ft 249kts
28-Dec-20 12:08 42.700991 -122.892263 305 7971ft 249kts
28-Dec-20 12:09 42.681702 -122.984271 242 7989ft 232kts
28-Dec-20 12:10 42.618363 -123.005836 174 6789ft 214kts
28-Dec-20 12:11 42.562245 -122.971499 158 4667ft 194kts
28-Dec-20 12:12 42.516916 -122.947660 158 4065ft 157kts
28-Dec-20 12:13 42.473061 -122.924660 158 3149ft 154kts
28-Dec-20 12:14 42.432061 -122.903175 158 2294ft 127kts
28-Dec-20 12:15 42.404057 -122.888517 158 1738ft 94kts
28-Dec-20 12:16 42.381496 -122.876676 159 1307ft 59kts
28-Dec-20 12:17 42.376036 -122.875218 233 1309ft 0kts
28-Dec-20 12:18 42.375676 -122.875321 174 1309ft 8kts
28-Dec-20 12:19 42.372973 -122.876796 291 1315ft 13kts
28-Dec-20 12:20 42.372028 -122.877010 202 1316ft 7kts
28-Dec-20 12:21 42.371295 -122.876935 204 1316ft 0kts
28-Dec-20 12:22 42.371295 -122.876935 204 1316ft 0kts
28-Dec-20 12:24 42.371295 -122.876935 204 1316ft 0kts
28-Dec-20 12:25 42.371295 -122.876935 204 1316ft 0kts
28-Dec-20 12:26 42.371295 -122.876935 204 1316ft 0kts
28-Dec-20 12:27 42.371295 -122.876935 204 1316ft 0kts
28-Dec-20 12:28 42.371295 -122.876935 204 1316ft 0kts
28-Dec-20 12:29 42.371295 -122.876935 204 1316ft 0kts
28-Dec-20 12:30 42.371295 -122.876935 204 1316ft 0kts
28-Dec-20 12:31 42.371295 -122.876935 204 1316ft 0kts
28-Dec-20 12:32 42.371295 -122.876935 204 1316ft 0kts

Navigation Log

Ident Type
Flight plan parsing failed, navigation log unavailable